Bowman, South Carolina
Current Conditions -  °F | °C
As of 5:53 PM on Tuesday 25 Nov 2014 (Local Time) from KOGB Reporting Station
Haze Haze  
Wind Chill: 60°   Ceiling: 10000
Heat Index: 60°   Visibility: 6mi
Dew Point: 57°   Wind: 3mph
Humidity: 90%   Direction: 80°E
Pressure: 30"   Gusts: NA
Location:  33.35°N, 80.68°W
Report Text: KOGB 252253Z AUTO 08003KT 6SM BR FEW080 OVC100 16/14 A3000 RMK AO2 RAB2154E03 SLP157 P0000 T01560139
Loading
Personal Weather Stations






























Interactive Weather Map New forecast layout! Learn more

10-Day Weather Forecast

Advertisements
Track Severe Weather on mobile